sensor_id;sensor_type;location;lat;lon;timestamp;P1;durP1;ratioP1;P2;durP2;ratioP2
6269;SDS011;3168;51.684;6.954;2023-05-10T00:00:10;6.40;;;4.37;;
6269;SDS011;3168;51.684;6.954;2023-05-10T00:02:36;5.70;;;5.20;;
6269;SDS011;3168;51.684;6.954;2023-05-10T00:05:02;10.33;;;5.40;;
6269;SDS011;3168;51.684;6.954;2023-05-10T00:07:28;6.03;;;5.00;;
6269;SDS011;3168;51.684;6.954;2023-05-10T00:09:54;6.20;;;5.63;;
6269;SDS011;3168;51.684;6.954;2023-05-10T00:12:19;6.80;;;5.40;;
6269;SDS011;3168;51.684;6.954;2023-05-10T00:14:45;5.33;;;4.93;;
6269;SDS011;3168;51.684;6.954;2023-05-10T00:17:11;5.20;;;4.80;;
6269;SDS011;3168;51.684;6.954;2023-05-10T00:19:37;6.47;;;4.20;;
6269;SDS011;3168;51.684;6.954;2023-05-10T00:22:03;8.60;;;5.70;;
6269;SDS011;3168;51.684;6.954;2023-05-10T00:24:28;3.97;;;3.73;;
6269;SDS011;3168;51.684;6.954;2023-05-10T00:26:54;4.47;;;3.97;;
6269;SDS011;3168;51.684;6.954;2023-05-10T00:29:20;6.20;;;4.47;;
6269;SDS011;3168;51.684;6.954;2023-05-10T00:31:46;5.53;;;4.40;;
6269;SDS011;3168;51.684;6.954;2023-05-10T00:34:12;6.20;;;4.57;;
6269;SDS011;3168;51.684;6.954;2023-05-10T00:36:37;4.73;;;4.33;;
6269;SDS011;3168;51.684;6.954;2023-05-10T00:39:03;9.63;;;5.10;;
6269;SDS011;3168;51.684;6.954;2023-05-10T00:41:29;5.93;;;4.63;;
6269;SDS011;3168;51.684;6.954;2023-05-10T00:43:55;4.93;;;4.53;;
6269;SDS011;3168;51.684;6.954;2023-05-10T00:46:21;4.43;;;3.80;;
6269;SDS011;3168;51.684;6.954;2023-05-10T00:48:46;4.40;;;4.00;;
6269;SDS011;3168;51.684;6.954;2023-05-10T00:51:13;5.53;;;4.67;;
6269;SDS011;3168;51.684;6.954;2023-05-10T00:53:38;5.77;;;5.17;;
6269;SDS011;3168;51.684;6.954;2023-05-10T00:56:04;6.20;;;5.10;;
6269;SDS011;3168;51.684;6.954;2023-05-10T00:58:30;4.70;;;4.27;;
6269;SDS011;3168;51.684;6.954;2023-05-10T01:00:56;6.53;;;4.30;;
6269;SDS011;3168;51.684;6.954;2023-05-10T01:03:22;4.40;;;4.10;;
6269;SDS011;3168;51.684;6.954;2023-05-10T01:05:48;7.67;;;4.40;;
6269;SDS011;3168;51.684;6.954;2023-05-10T01:08:13;4.47;;;3.87;;
6269;SDS011;3168;51.684;6.954;2023-05-10T01:10:39;4.73;;;4.23;;
6269;SDS011;3168;51.684;6.954;2023-05-10T01:13:05;7.80;;;3.90;;
6269;SDS011;3168;51.684;6.954;2023-05-10T01:15:32;4.00;;;2.97;;
6269;SDS011;3168;51.684;6.954;2023-05-10T01:17:57;2.80;;;2.70;;
6269;SDS011;3168;51.684;6.954;2023-05-10T01:20:23;2.37;;;2.27;;
6269;SDS011;3168;51.684;6.954;2023-05-10T01:22:52;3.53;;;3.20;;
6269;SDS011;3168;51.684;6.954;2023-05-10T01:28:07;8.13;;;2.60;;
6269;SDS011;3168;51.684;6.954;2023-05-10T01:30:53;2.33;;;2.20;;
6269;SDS011;3168;51.684;6.954;2023-05-10T01:33:26;2.43;;;2.23;;
6269;SDS011;3168;51.684;6.954;2023-05-10T01:36:03;1.90;;;1.80;;
6269;SDS011;3168;51.684;6.954;2023-05-10T01:38:32;2.10;;;2.00;;
6269;SDS011;3168;51.684;6.954;2023-05-10T01:43:37;2.33;;;2.23;;
6269;SDS011;3168;51.684;6.954;2023-05-10T01:46:07;1.50;;;1.50;;
6269;SDS011;3168;51.684;6.954;2023-05-10T01:48:36;2.10;;;2.00;;
6269;SDS011;3168;51.684;6.954;2023-05-10T01:51:02;1.77;;;1.67;;
6269;SDS011;3168;51.684;6.954;2023-05-10T01:53:28;5.10;;;3.60;;
6269;SDS011;3168;51.684;6.954;2023-05-10T01:55:54;3.10;;;2.93;;
6269;SDS011;3168;51.684;6.954;2023-05-10T01:58:22;3.20;;;2.93;;
6269;SDS011;3168;51.684;6.954;2023-05-10T02:00:49;2.60;;;2.40;;
6269;SDS011;3168;51.684;6.954;2023-05-10T02:03:15;3.17;;;2.97;;
6269;SDS011;3168;51.684;6.954;2023-05-10T02:05:41;4.03;;;3.70;;
6269;SDS011;3168;51.684;6.954;2023-05-10T02:08:07;5.30;;;4.53;;
6269;SDS011;3168;51.684;6.954;2023-05-10T02:10:34;4.80;;;4.20;;
6269;SDS011;3168;51.684;6.954;2023-05-10T02:12:59;6.53;;;5.20;;
6269;SDS011;3168;51.684;6.954;2023-05-10T02:15:25;8.47;;;4.07;;
6269;SDS011;3168;51.684;6.954;2023-05-10T02:17:51;4.77;;;4.33;;
6269;SDS011;3168;51.684;6.954;2023-05-10T02:20:16;4.97;;;4.60;;
6269;SDS011;3168;51.684;6.954;2023-05-10T02:22:42;11.20;;;5.60;;
6269;SDS011;3168;51.684;6.954;2023-05-10T02:25:08;10.37;;;5.60;;
6269;SDS011;3168;51.684;6.954;2023-05-10T02:27:34;7.17;;;4.20;;
6269;SDS011;3168;51.684;6.954;2023-05-10T02:30:00;9.87;;;6.10;;
6269;SDS011;3168;51.684;6.954;2023-05-10T02:32:26;6.03;;;4.50;;
6269;SDS011;3168;51.684;6.954;2023-05-10T02:34:51;6.30;;;5.77;;
6269;SDS011;3168;51.684;6.954;2023-05-10T02:37:18;6.27;;;4.97;;
6269;SDS011;3168;51.684;6.954;2023-05-10T02:39:44;15.43;;;6.20;;
6269;SDS011;3168;51.684;6.954;2023-05-10T02:42:11;9.03;;;4.90;;
6269;SDS011;3168;51.684;6.954;2023-05-10T02:44:35;12.33;;;6.03;;
6269;SDS011;3168;51.684;6.954;2023-05-10T02:47:01;10.03;;;5.50;;
6269;SDS011;3168;51.684;6.954;2023-05-10T02:49:27;14.87;;;6.30;;
6269;SDS011;3168;51.684;6.954;2023-05-10T02:51:55;9.20;;;5.80;;
6269;SDS011;3168;51.684;6.954;2023-05-10T02:54:20;14.43;;;6.67;;
6269;SDS011;3168;51.684;6.954;2023-05-10T02:56:50;20.17;;;6.73;;
6269;SDS011;3168;51.684;6.954;2023-05-10T02:59:13;27.33;;;5.50;;
6269;SDS011;3168;51.684;6.954;2023-05-10T03:01:39;11.43;;;6.40;;
6269;SDS011;3168;51.684;6.954;2023-05-10T03:04:05;15.83;;;7.47;;
6269;SDS011;3168;51.684;6.954;2023-05-10T03:06:30;15.17;;;8.40;;
6269;SDS011;3168;51.684;6.954;2023-05-10T03:08:56;9.90;;;6.20;;
6269;SDS011;3168;51.684;6.954;2023-05-10T03:11:32;13.03;;;8.10;;
6269;SDS011;3168;51.684;6.954;2023-05-10T03:14:05;13.23;;;5.70;;
6269;SDS011;3168;51.684;6.954;2023-05-10T03:16:42;9.97;;;7.23;;
6269;SDS011;3168;51.684;6.954;2023-05-10T03:19:24;11.70;;;7.43;;
6269;SDS011;3168;51.684;6.954;2023-05-10T03:21:49;11.00;;;7.30;;
6269;SDS011;3168;51.684;6.954;2023-05-10T03:24:14;13.23;;;8.10;;
6269;SDS011;3168;51.684;6.954;2023-05-10T03:26:40;13.10;;;7.00;;
6269;SDS011;3168;51.684;6.954;2023-05-10T03:29:06;16.87;;;9.23;;
6269;SDS011;3168;51.684;6.954;2023-05-10T03:31:31;11.37;;;7.73;;
6269;SDS011;3168;51.684;6.954;2023-05-10T03:33:57;21.87;;;10.60;;
6269;SDS011;3168;51.684;6.954;2023-05-10T03:36:23;21.00;;;9.13;;
6269;SDS011;3168;51.684;6.954;2023-05-10T03:38:49;18.17;;;7.87;;
6269;SDS011;3168;51.684;6.954;2023-05-10T03:41:15;19.33;;;8.83;;
6269;SDS011;3168;51.684;6.954;2023-05-10T03:43:41;12.77;;;8.20;;
6269;SDS011;3168;51.684;6.954;2023-05-10T03:46:07;15.10;;;9.70;;
6269;SDS011;3168;51.684;6.954;2023-05-10T03:48:32;18.30;;;8.80;;
6269;SDS011;3168;51.684;6.954;2023-05-10T03:50:58;18.77;;;9.87;;
6269;SDS011;3168;51.684;6.954;2023-05-10T03:53:24;13.90;;;8.00;;
6269;SDS011;3168;51.684;6.954;2023-05-10T03:55:50;16.07;;;8.83;;
6269;SDS011;3168;51.684;6.954;2023-05-10T03:58:16;27.60;;;11.20;;
6269;SDS011;3168;51.684;6.954;2023-05-10T04:00:42;22.13;;;11.77;;
6269;SDS011;3168;51.684;6.954;2023-05-10T04:03:09;16.92;;;11.82;;
6269;SDS011;3168;51.684;6.954;2023-05-10T04:05:35;24.93;;;12.10;;
6269;SDS011;3168;51.684;6.954;2023-05-10T04:08:01;26.30;;;11.97;;
6269;SDS011;3168;51.684;6.954;2023-05-10T04:10:26;22.53;;;11.00;;
6269;SDS011;3168;51.684;6.954;2023-05-10T04:12:52;28.23;;;10.80;;
6269;SDS011;3168;51.684;6.954;2023-05-10T04:15:18;23.50;;;11.60;;
6269;SDS011;3168;51.684;6.954;2023-05-10T04:17:44;27.13;;;12.00;;
6269;SDS011;3168;51.684;6.954;2023-05-10T04:20:10;25.43;;;12.37;;
6269;SDS011;3168;51.684;6.954;2023-05-10T04:22:36;23.70;;;11.80;;
6269;SDS011;3168;51.684;6.954;2023-05-10T04:25:02;24.00;;;12.00;;
6269;SDS011;3168;51.684;6.954;2023-05-10T04:27:29;30.40;;;12.30;;
6269;SDS011;3168;51.684;6.954;2023-05-10T04:29:54;19.27;;;10.83;;
6269;SDS011;3168;51.684;6.954;2023-05-10T04:32:20;25.27;;;13.20;;
6269;SDS011;3168;51.684;6.954;2023-05-10T04:34:46;35.57;;;14.60;;
6269;SDS011;3168;51.684;6.954;2023-05-10T04:37:12;31.47;;;15.13;;
6269;SDS011;3168;51.684;6.954;2023-05-10T04:39:38;29.33;;;12.20;;
6269;SDS011;3168;51.684;6.954;2023-05-10T04:42:04;31.93;;;14.10;;
6269;SDS011;3168;51.684;6.954;2023-05-10T04:44:29;30.67;;;13.63;;
6269;SDS011;3168;51.684;6.954;2023-05-10T04:46:55;32.53;;;14.10;;
6269;SDS011;3168;51.684;6.954;2023-05-10T04:49:21;28.23;;;14.17;;
6269;SDS011;3168;51.684;6.954;2023-05-10T04:51:47;32.27;;;15.20;;
6269;SDS011;3168;51.684;6.954;2023-05-10T04:54:13;44.13;;;15.43;;
6269;SDS011;3168;51.684;6.954;2023-05-10T04:56:38;32.10;;;15.20;;
6269;SDS011;3168;51.684;6.954;2023-05-10T04:59:04;42.80;;;16.53;;
6269;SDS011;3168;51.684;6.954;2023-05-10T05:01:30;28.10;;;14.03;;
6269;SDS011;3168;51.684;6.954;2023-05-10T05:03:56;33.87;;;16.70;;
6269;SDS011;3168;51.684;6.954;2023-05-10T05:06:22;32.50;;;15.27;;
6269;SDS011;3168;51.684;6.954;2023-05-10T05:08:48;29.50;;;14.40;;
6269;SDS011;3168;51.684;6.954;2023-05-10T05:11:13;41.93;;;16.70;;
6269;SDS011;3168;51.684;6.954;2023-05-10T05:13:39;33.53;;;13.73;;
6269;SDS011;3168;51.684;6.954;2023-05-10T05:16:05;35.23;;;14.97;;
6269;SDS011;3168;51.684;6.954;2023-05-10T05:18:31;36.33;;;15.40;;
6269;SDS011;3168;51.684;6.954;2023-05-10T05:20:57;37.00;;;17.20;;
6269;SDS011;3168;51.684;6.954;2023-05-10T05:23:23;44.83;;;16.50;;
6269;SDS011;3168;51.684;6.954;2023-05-10T05:25:49;38.57;;;17.57;;
6269;SDS011;3168;51.684;6.954;2023-05-10T05:28:15;36.87;;;16.40;;
6269;SDS011;3168;51.684;6.954;2023-05-10T05:30:41;53.67;;;16.33;;
6269;SDS011;3168;51.684;6.954;2023-05-10T05:33:07;32.23;;;15.07;;
6269;SDS011;3168;51.684;6.954;2023-05-10T05:35:33;43.47;;;17.90;;
6269;SDS011;3168;51.684;6.954;2023-05-10T05:37:58;44.83;;;14.07;;
6269;SDS011;3168;51.684;6.954;2023-05-10T05:40:24;30.83;;;14.23;;
6269;SDS011;3168;51.684;6.954;2023-05-10T05:42:50;41.30;;;17.93;;
6269;SDS011;3168;51.684;6.954;2023-05-10T05:45:16;45.57;;;16.23;;
6269;SDS011;3168;51.684;6.954;2023-05-10T05:47:42;45.47;;;17.30;;
6269;SDS011;3168;51.684;6.954;2023-05-10T05:50:08;31.20;;;16.47;;
6269;SDS011;3168;51.684;6.954;2023-05-10T05:52:34;52.17;;;17.10;;
6269;SDS011;3168;51.684;6.954;2023-05-10T05:55:01;31.80;;;12.60;;
6269;SDS011;3168;51.684;6.954;2023-05-10T05:57:27;42.10;;;16.00;;
6269;SDS011;3168;51.684;6.954;2023-05-10T05:59:52;38.40;;;15.10;;
6269;SDS011;3168;51.684;6.954;2023-05-10T06:02:18;49.47;;;17.60;;
6269;SDS011;3168;51.684;6.954;2023-05-10T06:04:44;52.93;;;16.17;;
6269;SDS011;3168;51.684;6.954;2023-05-10T06:07:10;47.40;;;15.27;;
6269;SDS011;3168;51.684;6.954;2023-05-10T06:09:36;59.43;;;16.40;;
6269;SDS011;3168;51.684;6.954;2023-05-10T06:12:02;44.90;;;17.90;;
6269;SDS011;3168;51.684;6.954;2023-05-10T06:14:28;34.53;;;15.97;;
6269;SDS011;3168;51.684;6.954;2023-05-10T06:16:54;34.97;;;16.50;;
6269;SDS011;3168;51.684;6.954;2023-05-10T06:19:20;47.50;;;18.83;;
6269;SDS011;3168;51.684;6.954;2023-05-10T06:21:46;41.33;;;16.93;;
6269;SDS011;3168;51.684;6.954;2023-05-10T06:24:12;48.57;;;18.10;;
6269;SDS011;3168;51.684;6.954;2023-05-10T06:26:38;50.23;;;18.80;;
6269;SDS011;3168;51.684;6.954;2023-05-10T06:29:03;45.67;;;17.03;;
6269;SDS011;3168;51.684;6.954;2023-05-10T06:31:30;54.03;;;20.80;;
6269;SDS011;3168;51.684;6.954;2023-05-10T06:33:56;41.23;;;19.20;;
6269;SDS011;3168;51.684;6.954;2023-05-10T06:36:21;57.67;;;20.80;;
6269;SDS011;3168;51.684;6.954;2023-05-10T06:38:47;40.03;;;17.40;;
6269;SDS011;3168;51.684;6.954;2023-05-10T06:41:14;48.03;;;19.27;;
6269;SDS011;3168;51.684;6.954;2023-05-10T06:43:40;41.20;;;17.40;;
6269;SDS011;3168;51.684;6.954;2023-05-10T06:46:06;39.80;;;19.27;;
6269;SDS011;3168;51.684;6.954;2023-05-10T06:48:32;38.73;;;17.83;;
6269;SDS011;3168;51.684;6.954;2023-05-10T06:50:57;40.03;;;15.20;;
6269;SDS011;3168;51.684;6.954;2023-05-10T06:53:23;38.73;;;17.87;;
6269;SDS011;3168;51.684;6.954;2023-05-10T06:55:49;41.03;;;17.90;;
6269;SDS011;3168;51.684;6.954;2023-05-10T06:58:15;40.07;;;16.63;;
6269;SDS011;3168;51.684;6.954;2023-05-10T07:00:41;35.47;;;13.97;;
6269;SDS011;3168;51.684;6.954;2023-05-10T07:03:07;40.17;;;15.40;;
6269;SDS011;3168;51.684;6.954;2023-05-10T07:05:33;38.13;;;15.87;;
6269;SDS011;3168;51.684;6.954;2023-05-10T07:07:58;36.60;;;15.60;;
6269;SDS011;3168;51.684;6.954;2023-05-10T07:10:24;35.57;;;17.40;;
6269;SDS011;3168;51.684;6.954;2023-05-10T07:12:50;32.47;;;15.67;;
6269;SDS011;3168;51.684;6.954;2023-05-10T07:15:16;33.83;;;17.30;;
6269;SDS011;3168;51.684;6.954;2023-05-10T07:17:42;35.60;;;17.47;;
6269;SDS011;3168;51.684;6.954;2023-05-10T07:20:08;31.90;;;15.43;;
6269;SDS011;3168;51.684;6.954;2023-05-10T07:22:34;34.60;;;16.00;;
6269;SDS011;3168;51.684;6.954;2023-05-10T07:25:00;43.47;;;16.70;;
6269;SDS011;3168;51.684;6.954;2023-05-10T07:27:26;43.67;;;18.33;;
6269;SDS011;3168;51.684;6.954;2023-05-10T07:29:52;47.37;;;17.17;;
6269;SDS011;3168;51.684;6.954;2023-05-10T07:32:17;23.53;;;15.03;;
6269;SDS011;3168;51.684;6.954;2023-05-10T07:34:43;28.00;;;14.10;;
6269;SDS011;3168;51.684;6.954;2023-05-10T07:37:09;33.30;;;16.10;;
6269;SDS011;3168;51.684;6.954;2023-05-10T07:39:35;38.13;;;15.73;;
6269;SDS011;3168;51.684;6.954;2023-05-10T07:42:01;37.60;;;15.57;;
6269;SDS011;3168;51.684;6.954;2023-05-10T07:44:27;36.80;;;16.40;;
6269;SDS011;3168;51.684;6.954;2023-05-10T07:46:53;30.67;;;14.43;;
6269;SDS011;3168;51.684;6.954;2023-05-10T07:49:18;44.03;;;16.83;;
6269;SDS011;3168;51.684;6.954;2023-05-10T07:51:44;33.93;;;14.00;;
6269;SDS011;3168;51.684;6.954;2023-05-10T07:54:10;36.43;;;14.47;;
6269;SDS011;3168;51.684;6.954;2023-05-10T07:56:36;33.27;;;14.93;;
6269;SDS011;3168;51.684;6.954;2023-05-10T07:59:02;24.40;;;14.90;;
6269;SDS011;3168;51.684;6.954;2023-05-10T08:01:29;27.83;;;15.37;;
6269;SDS011;3168;51.684;6.954;2023-05-10T08:03:54;25.43;;;14.63;;
6269;SDS011;3168;51.684;6.954;2023-05-10T08:06:19;38.47;;;16.60;;
6269;SDS011;3168;51.684;6.954;2023-05-10T08:08:46;31.30;;;15.97;;
6269;SDS011;3168;51.684;6.954;2023-05-10T08:11:11;34.60;;;15.23;;
6269;SDS011;3168;51.684;6.954;2023-05-10T08:13:37;33.37;;;14.43;;
6269;SDS011;3168;51.684;6.954;2023-05-10T08:16:03;35.57;;;15.10;;
6269;SDS011;3168;51.684;6.954;2023-05-10T08:18:29;26.80;;;15.23;;
6269;SDS011;3168;51.684;6.954;2023-05-10T08:20:55;27.03;;;12.67;;
6269;SDS011;3168;51.684;6.954;2023-05-10T08:23:21;37.30;;;12.73;;
6269;SDS011;3168;51.684;6.954;2023-05-10T08:25:46;28.03;;;14.57;;
6269;SDS011;3168;51.684;6.954;2023-05-10T08:28:12;40.80;;;13.77;;
6269;SDS011;3168;51.684;6.954;2023-05-10T08:30:38;30.80;;;14.30;;
6269;SDS011;3168;51.684;6.954;2023-05-10T08:33:04;20.53;;;10.77;;
6269;SDS011;3168;51.684;6.954;2023-05-10T08:35:30;24.37;;;13.90;;
6269;SDS011;3168;51.684;6.954;2023-05-10T08:37:56;20.10;;;11.80;;
6269;SDS011;3168;51.684;6.954;2023-05-10T08:40:22;25.57;;;12.27;;
6269;SDS011;3168;51.684;6.954;2023-05-10T08:42:50;25.77;;;12.57;;
6269;SDS011;3168;51.684;6.954;2023-05-10T08:45:13;20.07;;;10.90;;
6269;SDS011;3168;51.684;6.954;2023-05-10T08:47:39;24.50;;;11.47;;
6269;SDS011;3168;51.684;6.954;2023-05-10T08:50:05;19.90;;;12.57;;
6269;SDS011;3168;51.684;6.954;2023-05-10T08:52:32;19.97;;;11.07;;
6269;SDS011;3168;51.684;6.954;2023-05-10T08:54:58;16.30;;;10.30;;
6269;SDS011;3168;51.684;6.954;2023-05-10T08:57:24;22.03;;;11.87;;
6269;SDS011;3168;51.684;6.954;2023-05-10T08:59:50;29.83;;;12.43;;
6269;SDS011;3168;51.684;6.954;2023-05-10T09:02:16;16.73;;;10.50;;
6269;SDS011;3168;51.684;6.954;2023-05-10T09:04:41;22.10;;;12.17;;
6269;SDS011;3168;51.684;6.954;2023-05-10T09:07:07;21.00;;;11.83;;
6269;SDS011;3168;51.684;6.954;2023-05-10T09:09:33;19.60;;;11.30;;
6269;SDS011;3168;51.684;6.954;2023-05-10T09:11:59;19.93;;;9.47;;
6269;SDS011;3168;51.684;6.954;2023-05-10T09:14:25;20.37;;;10.73;;
6269;SDS011;3168;51.684;6.954;2023-05-10T09:16:51;17.77;;;10.67;;
6269;SDS011;3168;51.684;6.954;2023-05-10T09:19:16;23.37;;;11.97;;
6269;SDS011;3168;51.684;6.954;2023-05-10T09:21:42;19.73;;;10.60;;
6269;SDS011;3168;51.684;6.954;2023-05-10T09:24:08;29.10;;;11.17;;
6269;SDS011;3168;51.684;6.954;2023-05-10T09:26:35;22.07;;;11.57;;
6269;SDS011;3168;51.684;6.954;2023-05-10T09:29:02;19.87;;;9.97;;
6269;SDS011;3168;51.684;6.954;2023-05-10T09:34:06;55.63;;;22.50;;
6269;SDS011;3168;51.684;6.954;2023-05-10T09:36:31;30.40;;;11.17;;
6269;SDS011;3168;51.684;6.954;2023-05-10T09:38:57;29.63;;;11.93;;
6269;SDS011;3168;51.684;6.954;2023-05-10T09:41:23;19.17;;;11.80;;
6269;SDS011;3168;51.684;6.954;2023-05-10T09:43:49;17.63;;;9.80;;
6269;SDS011;3168;51.684;6.954;2023-05-10T09:46:15;17.30;;;9.90;;
6269;SDS011;3168;51.684;6.954;2023-05-10T09:48:43;21.90;;;9.63;;
6269;SDS011;3168;51.684;6.954;2023-05-10T09:51:07;23.70;;;12.70;;
6269;SDS011;3168;51.684;6.954;2023-05-10T09:53:33;18.03;;;10.13;;
6269;SDS011;3168;51.684;6.954;2023-05-10T09:55:59;19.23;;;11.40;;
6269;SDS011;3168;51.684;6.954;2023-05-10T09:58:25;19.73;;;11.33;;
6269;SDS011;3168;51.684;6.954;2023-05-10T10:00:51;24.10;;;11.83;;
6269;SDS011;3168;51.684;6.954;2023-05-10T10:03:18;29.33;;;11.67;;
6269;SDS011;3168;51.684;6.954;2023-05-10T10:05:43;16.37;;;10.57;;
6269;SDS011;3168;51.684;6.954;2023-05-10T10:08:08;23.03;;;11.50;;
6269;SDS011;3168;51.684;6.954;2023-05-10T10:10:34;32.60;;;13.10;;
6269;SDS011;3168;51.684;6.954;2023-05-10T10:13:01;21.53;;;13.17;;
6269;SDS011;3168;51.684;6.954;2023-05-10T10:15:27;16.00;;;9.50;;
6269;SDS011;3168;51.684;6.954;2023-05-10T10:17:53;23.83;;;11.90;;
6269;SDS011;3168;51.684;6.954;2023-05-10T10:20:19;20.90;;;12.30;;
6269;SDS011;3168;51.684;6.954;2023-05-10T10:22:44;17.00;;;10.63;;
6269;SDS011;3168;51.684;6.954;2023-05-10T10:25:11;19.17;;;12.00;;
6269;SDS011;3168;51.684;6.954;2023-05-10T10:28:10;22.47;;;11.37;;
6269;SDS011;3168;51.684;6.954;2023-05-10T10:35:46;15.63;;;10.80;;
6269;SDS011;3168;51.684;6.954;2023-05-10T10:38:12;17.73;;;10.13;;
6269;SDS011;3168;51.684;6.954;2023-05-10T10:40:39;15.13;;;10.30;;
6269;SDS011;3168;51.684;6.954;2023-05-10T10:43:21;21.60;;;10.30;;
6269;SDS011;3168;51.684;6.954;2023-05-10T10:45:40;11.33;;;9.07;;
6269;SDS011;3168;51.684;6.954;2023-05-10T10:50:44;13.83;;;9.07;;
6269;SDS011;3168;51.684;6.954;2023-05-10T10:53:10;14.03;;;8.77;;
6269;SDS011;3168;51.684;6.954;2023-05-10T10:55:35;10.60;;;8.57;;
6269;SDS011;3168;51.684;6.954;2023-05-10T10:58:01;11.70;;;8.40;;
6269;SDS011;3168;51.684;6.954;2023-05-10T11:00:28;10.93;;;7.30;;
6269;SDS011;3168;51.684;6.954;2023-05-10T11:02:57;8.80;;;6.93;;
6269;SDS011;3168;51.684;6.954;2023-05-10T11:05:23;12.85;;;7.97;;
6269;SDS011;3168;51.684;6.954;2023-05-10T11:07:51;12.93;;;7.60;;
6269;SDS011;3168;51.684;6.954;2023-05-10T11:10:19;7.53;;;6.50;;
6269;SDS011;3168;51.684;6.954;2023-05-10T11:15:32;16.57;;;8.70;;
6269;SDS011;3168;51.684;6.954;2023-05-10T11:17:58;12.60;;;9.43;;
6269;SDS011;3168;51.684;6.954;2023-05-10T11:20:26;13.20;;;8.63;;
6269;SDS011;3168;51.684;6.954;2023-05-10T11:22:50;13.43;;;7.73;;
6269;SDS011;3168;51.684;6.954;2023-05-10T11:25:16;15.13;;;10.37;;
6269;SDS011;3168;51.684;6.954;2023-05-10T11:27:42;10.20;;;7.27;;
6269;SDS011;3168;51.684;6.954;2023-05-10T11:30:09;16.90;;;8.10;;
6269;SDS011;3168;51.684;6.954;2023-05-10T11:32:34;16.40;;;9.17;;
6269;SDS011;3168;51.684;6.954;2023-05-10T11:34:59;9.13;;;7.03;;
6269;SDS011;3168;51.684;6.954;2023-05-10T11:37:27;15.57;;;8.83;;
6269;SDS011;3168;51.684;6.954;2023-05-10T11:39:51;11.17;;;8.30;;
6269;SDS011;3168;51.684;6.954;2023-05-10T11:42:17;13.70;;;8.30;;
6269;SDS011;3168;51.684;6.954;2023-05-10T11:44:45;14.03;;;10.53;;
6269;SDS011;3168;51.684;6.954;2023-05-10T11:47:09;13.77;;;7.10;;
6269;SDS011;3168;51.684;6.954;2023-05-10T11:49:34;9.70;;;8.30;;
6269;SDS011;3168;51.684;6.954;2023-05-10T11:52:04;14.60;;;10.27;;
6269;SDS011;3168;51.684;6.954;2023-05-10T11:54:30;11.67;;;6.80;;
6269;SDS011;3168;51.684;6.954;2023-05-10T11:56:56;8.47;;;6.07;;
6269;SDS011;3168;51.684;6.954;2023-05-10T11:59:22;18.30;;;8.30;;
6269;SDS011;3168;51.684;6.954;2023-05-10T12:01:48;16.33;;;8.00;;
6269;SDS011;3168;51.684;6.954;2023-05-10T12:04:14;8.83;;;7.00;;
6269;SDS011;3168;51.684;6.954;2023-05-10T12:06:40;8.87;;;7.27;;
6269;SDS011;3168;51.684;6.954;2023-05-10T12:09:06;9.70;;;6.63;;
6269;SDS011;3168;51.684;6.954;2023-05-10T12:11:31;13.50;;;7.53;;
6269;SDS011;3168;51.684;6.954;2023-05-10T12:13:57;9.67;;;7.87;;
6269;SDS011;3168;51.684;6.954;2023-05-10T12:16:24;13.83;;;8.40;;
6269;SDS011;3168;51.684;6.954;2023-05-10T12:18:51;20.77;;;8.43;;
6269;SDS011;3168;51.684;6.954;2023-05-10T12:21:16;13.63;;;8.60;;
6269;SDS011;3168;51.684;6.954;2023-05-10T12:23:43;9.20;;;7.73;;
6269;SDS011;3168;51.684;6.954;2023-05-10T12:26:09;17.20;;;9.07;;
6269;SDS011;3168;51.684;6.954;2023-05-10T12:28:34;11.30;;;8.03;;
6269;SDS011;3168;51.684;6.954;2023-05-10T12:31:02;15.33;;;8.70;;
6269;SDS011;3168;51.684;6.954;2023-05-10T12:33:34;11.10;;;6.77;;
6269;SDS011;3168;51.684;6.954;2023-05-10T12:36:01;11.67;;;8.13;;
6269;SDS011;3168;51.684;6.954;2023-05-10T12:38:29;12.23;;;8.83;;
6269;SDS011;3168;51.684;6.954;2023-05-10T12:40:56;20.77;;;7.37;;
6269;SDS011;3168;51.684;6.954;2023-05-10T12:43:29;14.17;;;7.50;;
6269;SDS011;3168;51.684;6.954;2023-05-10T12:45:55;12.40;;;8.50;;
6269;SDS011;3168;51.684;6.954;2023-05-10T12:48:21;8.70;;;6.67;;
6269;SDS011;3168;51.684;6.954;2023-05-10T12:50:48;12.87;;;5.97;;
6269;SDS011;3168;51.684;6.954;2023-05-10T12:53:14;7.87;;;7.07;;
6269;SDS011;3168;51.684;6.954;2023-05-10T12:55:39;13.27;;;8.87;;
6269;SDS011;3168;51.684;6.954;2023-05-10T12:58:05;8.00;;;6.50;;
6269;SDS011;3168;51.684;6.954;2023-05-10T13:00:31;10.60;;;7.50;;
6269;SDS011;3168;51.684;6.954;2023-05-10T13:02:57;13.83;;;7.20;;
6269;SDS011;3168;51.684;6.954;2023-05-10T13:05:23;11.90;;;7.13;;
6269;SDS011;3168;51.684;6.954;2023-05-10T13:07:49;8.47;;;6.20;;
6269;SDS011;3168;51.684;6.954;2023-05-10T13:10:16;8.20;;;6.87;;
6269;SDS011;3168;51.684;6.954;2023-05-10T13:12:42;7.27;;;6.53;;
6269;SDS011;3168;51.684;6.954;2023-05-10T13:15:08;17.43;;;7.27;;
6269;SDS011;3168;51.684;6.954;2023-05-10T13:17:34;7.57;;;6.83;;
6269;SDS011;3168;51.684;6.954;2023-05-10T13:20:00;6.97;;;6.37;;
6269;SDS011;3168;51.684;6.954;2023-05-10T13:22:26;9.97;;;6.87;;
6269;SDS011;3168;51.684;6.954;2023-05-10T13:24:52;6.43;;;5.87;;
6269;SDS011;3168;51.684;6.954;2023-05-10T13:27:18;10.50;;;6.27;;
6269;SDS011;3168;51.684;6.954;2023-05-10T13:29:43;5.50;;;5.00;;
6269;SDS011;3168;51.684;6.954;2023-05-10T13:32:09;15.97;;;6.37;;
6269;SDS011;3168;51.684;6.954;2023-05-10T13:34:35;8.70;;;6.20;;
6269;SDS011;3168;51.684;6.954;2023-05-10T13:37:02;8.57;;;6.30;;
6269;SDS011;3168;51.684;6.954;2023-05-10T13:39:28;7.60;;;6.43;;
6269;SDS011;3168;51.684;6.954;2023-05-10T13:41:53;9.23;;;7.57;;
6269;SDS011;3168;51.684;6.954;2023-05-10T13:44:20;11.70;;;7.50;;
6269;SDS011;3168;51.684;6.954;2023-05-10T13:46:45;7.03;;;6.23;;
6269;SDS011;3168;51.684;6.954;2023-05-10T13:49:11;7.37;;;6.73;;
6269;SDS011;3168;51.684;6.954;2023-05-10T13:51:37;10.63;;;6.93;;
6269;SDS011;3168;51.684;6.954;2023-05-10T13:54:03;11.80;;;8.50;;
6269;SDS011;3168;51.684;6.954;2023-05-10T13:56:29;13.50;;;7.80;;
6269;SDS011;3168;51.684;6.954;2023-05-10T13:58:55;11.30;;;7.83;;
6269;SDS011;3168;51.684;6.954;2023-05-10T14:01:20;9.93;;;8.30;;
6269;SDS011;3168;51.684;6.954;2023-05-10T14:03:46;8.33;;;7.60;;
6269;SDS011;3168;51.684;6.954;2023-05-10T14:06:12;9.55;;;7.03;;
6269;SDS011;3168;51.684;6.954;2023-05-10T14:08:38;10.80;;;9.00;;
6269;SDS011;3168;51.684;6.954;2023-05-10T14:11:04;11.87;;;7.77;;
6269;SDS011;3168;51.684;6.954;2023-05-10T14:13:31;9.97;;;6.50;;
6269;SDS011;3168;51.684;6.954;2023-05-10T14:15:58;9.30;;;5.40;;
6269;SDS011;3168;51.684;6.954;2023-05-10T14:18:24;8.20;;;7.30;;
6269;SDS011;3168;51.684;6.954;2023-05-10T14:20:50;10.17;;;8.17;;
6269;SDS011;3168;51.684;6.954;2023-05-10T14:23:15;8.50;;;7.70;;
6269;SDS011;3168;51.684;6.954;2023-05-10T14:25:41;7.37;;;5.77;;
6269;SDS011;3168;51.684;6.954;2023-05-10T14:28:07;5.30;;;4.63;;
6269;SDS011;3168;51.684;6.954;2023-05-10T14:30:33;7.97;;;6.43;;
6269;SDS011;3168;51.684;6.954;2023-05-10T14:33:01;9.10;;;5.40;;
6269;SDS011;3168;51.684;6.954;2023-05-10T14:35:26;6.13;;;5.60;;
6269;SDS011;3168;51.684;6.954;2023-05-10T14:37:52;4.97;;;4.67;;
6269;SDS011;3168;51.684;6.954;2023-05-10T14:40:17;10.10;;;4.50;;
6269;SDS011;3168;51.684;6.954;2023-05-10T14:42:43;6.00;;;4.23;;
6269;SDS011;3168;51.684;6.954;2023-05-10T14:45:09;8.00;;;4.60;;
6269;SDS011;3168;51.684;6.954;2023-05-10T14:47:36;12.47;;;5.90;;
6269;SDS011;3168;51.684;6.954;2023-05-10T14:50:01;5.80;;;5.17;;
6269;SDS011;3168;51.684;6.954;2023-05-10T14:52:27;7.20;;;6.00;;
6269;SDS011;3168;51.684;6.954;2023-05-10T14:54:53;9.40;;;6.80;;
6269;SDS011;3168;51.684;6.954;2023-05-10T14:57:19;6.77;;;6.17;;
6269;SDS011;3168;51.684;6.954;2023-05-10T14:59:45;5.97;;;5.40;;
6269;SDS011;3168;51.684;6.954;2023-05-10T15:02:11;6.40;;;5.80;;
6269;SDS011;3168;51.684;6.954;2023-05-10T15:04:37;6.07;;;4.63;;
6269;SDS011;3168;51.684;6.954;2023-05-10T15:07:03;6.70;;;6.00;;
6269;SDS011;3168;51.684;6.954;2023-05-10T15:09:29;7.57;;;6.87;;
6269;SDS011;3168;51.684;6.954;2023-05-10T15:11:55;9.00;;;6.83;;